Moa, Cuba
Current Conditions -  °F | °C
As of 5:56 PM on Tuesday 25 Nov 2014 (Local Time) from MUGM Reporting Station
Scattered Clouds Scattered Clouds  
Wind Chill: 86°   Ceiling: Unl
Heat Index: 97°   Visibility: 6mi
Dew Point: 77°   Wind: 16mph
Humidity: 74%   Direction: 100°E
Pressure: 29.95"   Gusts: NA
Location:  20.66°N, 74.92°W
Report Text: MUGM 252156Z 10014KT 9999 SCT030 SCT280 30/25 A2995 RMK SLP140 T03000250
Loading
Personal Weather Stations






























Interactive Weather Map New forecast layout! Learn more

10-Day Weather Forecast

Advertisements
Track Severe Weather on mobile